sensor_id;sensor_type;location;lat;lon;timestamp;pressure;altitude;pressure_sealevel;temperature;humidity
13011;BME280;6786;57.632;11.962;2022-07-04T00:01:25;100704.59;;;22.22;65.00
13011;BME280;6786;57.632;11.962;2022-07-04T00:03:53;100711.66;;;22.23;64.91
13011;BME280;6786;57.632;11.962;2022-07-04T00:06:22;100702.78;;;22.23;64.91
13011;BME280;6786;57.632;11.962;2022-07-04T00:08:50;100709.84;;;22.24;64.62
13011;BME280;6786;57.632;11.962;2022-07-04T00:11:18;100711.66;;;22.23;64.84
13011;BME280;6786;57.632;11.962;2022-07-04T00:13:46;100723.28;;;22.24;64.70
13011;BME280;6786;57.632;11.962;2022-07-04T00:16:15;100728.69;;;22.24;64.67
13011;BME280;6786;57.632;11.962;2022-07-04T00:18:43;100715.22;;;22.24;64.90
13011;BME280;6786;57.632;11.962;2022-07-04T00:21:11;100710.00;;;22.22;64.73
13011;BME280;6786;57.632;11.962;2022-07-04T00:23:39;100711.50;;;22.25;65.13
13011;BME280;6786;57.632;11.962;2022-07-04T00:26:07;100703.44;;;22.25;65.14
13011;BME280;6786;57.632;11.962;2022-07-04T00:28:35;100698.06;;;22.25;64.99
13011;BME280;6786;57.632;11.962;2022-07-04T00:31:03;100702.47;;;22.26;64.76
13011;BME280;6786;57.632;11.962;2022-07-04T00:33:33;100698.06;;;22.25;64.93
13011;BME280;6786;57.632;11.962;2022-07-04T00:36:01;100698.91;;;22.25;64.85
13011;BME280;6786;57.632;11.962;2022-07-04T00:38:29;100703.44;;;22.25;64.96
13011;BME280;6786;57.632;11.962;2022-07-04T00:40:57;100698.91;;;22.25;65.05
13011;BME280;6786;57.632;11.962;2022-07-04T00:43:27;100699.75;;;22.26;64.75
13011;BME280;6786;57.632;11.962;2022-07-04T00:45:56;100698.06;;;22.25;65.01
13011;BME280;6786;57.632;11.962;2022-07-04T00:48:25;100708.81;;;22.25;64.88
13011;BME280;6786;57.632;11.962;2022-07-04T00:50:54;100699.75;;;22.26;64.63
13011;BME280;6786;57.632;11.962;2022-07-04T00:53:22;100692.66;;;22.25;64.84
13011;BME280;6786;57.632;11.962;2022-07-04T00:55:51;100694.38;;;22.26;64.78
13011;BME280;6786;57.632;11.962;2022-07-04T00:58:20;100653.50;;;22.05;64.97
13011;BME280;6786;57.632;11.962;2022-07-04T01:00:49;100684.44;;;22.26;65.01
13011;BME280;6786;57.632;11.962;2022-07-04T01:03:17;100679.91;;;22.27;65.05
13011;BME280;6786;57.632;11.962;2022-07-04T01:05:45;100664.75;;;22.26;64.66
13011;BME280;6786;57.632;11.962;2022-07-04T01:08:15;100643.22;;;22.26;65.10
13011;BME280;6786;57.632;11.962;2022-07-04T01:10:43;100642.22;;;22.27;64.98
13011;BME280;6786;57.632;11.962;2022-07-04T01:13:19;100628.75;;;22.27;64.94
13011;BME280;6786;57.632;11.962;2022-07-04T01:15:47;100638.81;;;22.25;64.92
13011;BME280;6786;57.632;11.962;2022-07-04T01:18:16;100638.00;;;22.24;65.01
13011;BME280;6786;57.632;11.962;2022-07-04T01:20:45;100651.31;;;22.26;64.72
13011;BME280;6786;57.632;11.962;2022-07-04T01:23:13;100663.03;;;22.25;65.09
13011;BME280;6786;57.632;11.962;2022-07-04T01:25:43;100662.06;;;22.26;64.96
13011;BME280;6786;57.632;11.962;2022-07-04T01:28:11;100658.69;;;22.24;64.76
13011;BME280;6786;57.632;11.962;2022-07-04T01:30:39;100657.81;;;22.23;64.75
13011;BME280;6786;57.632;11.962;2022-07-04T01:33:07;100662.38;;;22.23;64.72
13011;BME280;6786;57.632;11.962;2022-07-04T01:35:35;100658.69;;;22.24;64.73
13011;BME280;6786;57.632;11.962;2022-07-04T01:38:05;100664.06;;;22.24;64.80
13011;BME280;6786;57.632;11.962;2022-07-04T01:40:33;100664.06;;;22.24;65.14
13011;BME280;6786;57.632;11.962;2022-07-04T01:43:02;100653.28;;;22.24;64.93
13011;BME280;6786;57.632;11.962;2022-07-04T01:45:30;100664.06;;;22.24;64.98
13011;BME280;6786;57.632;11.962;2022-07-04T01:48:00;100665.06;;;22.23;65.08
13011;BME280;6786;57.632;11.962;2022-07-04T01:50:29;100670.47;;;22.23;65.06
13011;BME280;6786;57.632;11.962;2022-07-04T01:52:56;100673.16;;;22.23;65.15
13011;BME280;6786;57.632;11.962;2022-07-04T01:55:26;100680.22;;;22.24;65.02
13011;BME280;6786;57.632;11.962;2022-07-04T01:57:54;100682.22;;;22.22;65.17
13011;BME280;6786;57.632;11.962;2022-07-04T02:00:23;100674.13;;;22.22;64.77
13011;BME280;6786;57.632;11.962;2022-07-04T02:03:08;100676.81;;;22.22;65.11
13011;BME280;6786;57.632;11.962;2022-07-04T02:05:37;100648.09;;;22.05;64.88
13011;BME280;6786;57.632;11.962;2022-07-04T02:08:05;100681.06;;;22.24;64.91
13011;BME280;6786;57.632;11.962;2022-07-04T02:10:34;100692.66;;;22.25;64.99
13011;BME280;6786;57.632;11.962;2022-07-04T02:13:02;100691.00;;;22.24;64.95
13011;BME280;6786;57.632;11.962;2022-07-04T02:15:31;100693.53;;;22.25;64.89
13011;BME280;6786;57.632;11.962;2022-07-04T02:18:01;100685.91;;;22.21;64.86
13011;BME280;6786;57.632;11.962;2022-07-04T02:20:30;100683.91;;;22.23;64.83
13011;BME280;6786;57.632;11.962;2022-07-04T02:22:58;100678.00;;;22.19;64.97
13011;BME280;6786;57.632;11.962;2022-07-04T02:25:26;100685.59;;;22.24;64.84
13011;BME280;6786;57.632;11.962;2022-07-04T02:27:56;100685.59;;;22.24;64.73
13011;BME280;6786;57.632;11.962;2022-07-04T02:30:25;100680.22;;;22.24;64.73
13011;BME280;6786;57.632;11.962;2022-07-04T02:32:53;100680.22;;;22.24;64.55
13011;BME280;6786;57.632;11.962;2022-07-04T02:35:21;100685.59;;;22.24;64.84
13011;BME280;6786;57.632;11.962;2022-07-04T02:37:49;100675.69;;;22.24;65.01
13011;BME280;6786;57.632;11.962;2022-07-04T02:40:17;100676.50;;;22.25;64.85
13011;BME280;6786;57.632;11.962;2022-07-04T02:42:45;100676.50;;;22.25;64.63
13011;BME280;6786;57.632;11.962;2022-07-04T02:45:14;100671.13;;;22.25;64.63
13011;BME280;6786;57.632;11.962;2022-07-04T02:47:42;100663.22;;;22.23;64.75
13011;BME280;6786;57.632;11.962;2022-07-04T02:50:10;100658.13;;;22.20;64.51
13011;BME280;6786;57.632;11.962;2022-07-04T02:52:38;100670.16;;;22.26;64.46
13011;BME280;6786;57.632;11.962;2022-07-04T02:55:06;100663.03;;;22.25;64.86
13011;BME280;6786;57.632;11.962;2022-07-04T02:57:34;100653.28;;;22.24;64.72
13011;BME280;6786;57.632;11.962;2022-07-04T03:00:05;100660.34;;;22.25;64.44
13011;BME280;6786;57.632;11.962;2022-07-04T03:02:34;100651.31;;;22.26;64.83
13011;BME280;6786;57.632;11.962;2022-07-04T03:05:03;100643.38;;;22.24;64.53
13011;BME280;6786;57.632;11.962;2022-07-04T03:07:31;100632.63;;;22.24;64.90
13011;BME280;6786;57.632;11.962;2022-07-04T03:10:00;100633.44;;;22.25;64.74
13011;BME280;6786;57.632;11.962;2022-07-04T03:12:28;100628.03;;;22.25;64.90
13011;BME280;6786;57.632;11.962;2022-07-04T03:14:56;100617.28;;;22.25;64.60
13011;BME280;6786;57.632;11.962;2022-07-04T03:17:26;100632.63;;;22.24;64.62
13011;BME280;6786;57.632;11.962;2022-07-04T03:19:56;100611.06;;;22.24;64.63
13011;BME280;6786;57.632;11.962;2022-07-04T03:22:26;100633.44;;;22.25;64.39
13011;BME280;6786;57.632;11.962;2022-07-04T03:24:53;100641.50;;;22.25;64.67
13011;BME280;6786;57.632;11.962;2022-07-04T03:27:22;100638.81;;;22.25;64.83
13011;BME280;6786;57.632;11.962;2022-07-04T03:29:50;100640.53;;;22.26;64.72
13011;BME280;6786;57.632;11.962;2022-07-04T03:32:19;100624.38;;;22.26;64.52
13011;BME280;6786;57.632;11.962;2022-07-04T03:34:47;100622.66;;;22.25;64.54
13011;BME280;6786;57.632;11.962;2022-07-04T03:37:17;100620.97;;;22.24;64.40
13011;BME280;6786;57.632;11.962;2022-07-04T03:39:46;100615.59;;;22.24;64.41
13011;BME280;6786;57.632;11.962;2022-07-04T03:42:16;100614.59;;;22.25;64.69
13011;BME280;6786;57.632;11.962;2022-07-04T03:44:45;100611.06;;;22.24;64.68
13011;BME280;6786;57.632;11.962;2022-07-04T03:47:13;100620.13;;;22.23;64.78
13011;BME280;6786;57.632;11.962;2022-07-04T03:49:41;100626.38;;;22.24;64.77
13011;BME280;6786;57.632;11.962;2022-07-04T03:52:10;100626.38;;;22.24;64.76
13011;BME280;6786;57.632;11.962;2022-07-04T03:54:39;100613.06;;;22.22;64.57
13011;BME280;6786;57.632;11.962;2022-07-04T03:57:07;100631.44;;;22.27;64.34
13011;BME280;6786;57.632;11.962;2022-07-04T03:59:35;100614.44;;;22.26;64.24
13011;BME280;6786;57.632;11.962;2022-07-04T04:02:04;100621.53;;;22.27;64.52
13011;BME280;6786;57.632;11.962;2022-07-04T04:04:32;100620.50;;;22.28;64.34
13011;BME280;6786;57.632;11.962;2022-07-04T04:07:17;100614.44;;;22.26;64.37
13011;BME280;6786;57.632;11.962;2022-07-04T04:09:47;100617.97;;;22.27;64.50
13011;BME280;6786;57.632;11.962;2022-07-04T04:12:15;100614.28;;;22.28;64.14
13011;BME280;6786;57.632;11.962;2022-07-04T04:14:43;100611.56;;;22.28;64.47
13011;BME280;6786;57.632;11.962;2022-07-04T04:17:11;100619.00;;;22.26;64.45
13011;BME280;6786;57.632;11.962;2022-07-04T04:19:39;100617.97;;;22.27;64.52
13011;BME280;6786;57.632;11.962;2022-07-04T04:22:08;100619.97;;;22.25;64.23
13011;BME280;6786;57.632;11.962;2022-07-04T04:24:36;100632.78;;;22.23;64.32
13011;BME280;6786;57.632;11.962;2022-07-04T04:27:05;100632.63;;;22.24;64.66
13011;BME280;6786;57.632;11.962;2022-07-04T04:29:33;100639.13;;;22.22;64.45
13011;BME280;6786;57.632;11.962;2022-07-04T04:32:02;100635.47;;;22.23;64.61
13011;BME280;6786;57.632;11.962;2022-07-04T04:34:30;100644.53;;;22.22;64.74
13011;BME280;6786;57.632;11.962;2022-07-04T04:36:58;100633.75;;;22.22;64.51
13011;BME280;6786;57.632;11.962;2022-07-04T04:39:26;100639.13;;;22.22;64.77
13011;BME280;6786;57.632;11.962;2022-07-04T04:41:53;100632.06;;;22.21;64.36
13011;BME280;6786;57.632;11.962;2022-07-04T04:44:23;100629.38;;;22.21;64.72
13011;BME280;6786;57.632;11.962;2022-07-04T04:46:51;100622.47;;;22.18;64.65
13011;BME280;6786;57.632;11.962;2022-07-04T04:49:19;100632.06;;;22.21;64.86
13011;BME280;6786;57.632;11.962;2022-07-04T04:51:46;100622.97;;;22.22;64.69
13011;BME280;6786;57.632;11.962;2022-07-04T04:54:14;100640.16;;;22.21;64.48
13011;BME280;6786;57.632;11.962;2022-07-04T04:56:44;100640.31;;;22.19;64.57
13011;BME280;6786;57.632;11.962;2022-07-04T04:59:12;100628.38;;;22.22;64.57
13011;BME280;6786;57.632;11.962;2022-07-04T05:01:42;100634.59;;;22.22;64.45
13011;BME280;6786;57.632;11.962;2022-07-04T05:04:10;100634.59;;;22.22;64.46
13011;BME280;6786;57.632;11.962;2022-07-04T05:06:41;100641.81;;;22.22;64.38
13011;BME280;6786;57.632;11.962;2022-07-04T05:09:09;100646.22;;;22.23;64.50
13011;BME280;6786;57.632;11.962;2022-07-04T05:11:38;100651.47;;;22.24;64.28
13011;BME280;6786;57.632;11.962;2022-07-04T05:14:06;100653.28;;;22.24;64.33
13011;BME280;6786;57.632;11.962;2022-07-04T05:16:34;100647.91;;;22.24;64.20
13011;BME280;6786;57.632;11.962;2022-07-04T05:19:03;100647.91;;;22.24;64.59
13011;BME280;6786;57.632;11.962;2022-07-04T05:21:31;100653.28;;;22.24;64.71
13011;BME280;6786;57.632;11.962;2022-07-04T05:24:00;100646.22;;;22.23;64.62
13011;BME280;6786;57.632;11.962;2022-07-04T05:26:28;100652.75;;;22.20;64.58
13011;BME280;6786;57.632;11.962;2022-07-04T05:28:56;100660.66;;;22.22;64.62
13011;BME280;6786;57.632;11.962;2022-07-04T05:31:25;100649.91;;;22.22;64.42
13011;BME280;6786;57.632;11.962;2022-07-04T05:33:53;100662.38;;;22.23;64.37
13011;BME280;6786;57.632;11.962;2022-07-04T05:36:24;100662.69;;;22.20;64.61
13011;BME280;6786;57.632;11.962;2022-07-04T05:38:56;100662.69;;;22.20;64.48
13011;BME280;6786;57.632;11.962;2022-07-04T05:41:24;100657.31;;;22.20;64.79
13011;BME280;6786;57.632;11.962;2022-07-04T05:43:53;100662.69;;;22.20;64.37
13011;BME280;6786;57.632;11.962;2022-07-04T05:46:24;100663.53;;;22.20;64.79
13011;BME280;6786;57.632;11.962;2022-07-04T05:48:53;100665.22;;;22.21;64.59
13011;BME280;6786;57.632;11.962;2022-07-04T05:51:20;100661.13;;;22.17;64.65
13011;BME280;6786;57.632;11.962;2022-07-04T05:53:50;100664.69;;;22.18;64.80
13011;BME280;6786;57.632;11.962;2022-07-04T05:56:18;100675.16;;;22.21;64.66
13011;BME280;6786;57.632;11.962;2022-07-04T05:58:46;100647.41;;;22.03;64.46
13011;BME280;6786;57.632;11.962;2022-07-04T06:01:15;100669.91;;;22.19;64.63
13011;BME280;6786;57.632;11.962;2022-07-04T06:03:43;100675.16;;;22.21;64.42
13011;BME280;6786;57.632;11.962;2022-07-04T06:06:11;100676.97;;;22.20;64.75
13011;BME280;6786;57.632;11.962;2022-07-04T06:08:40;100675.16;;;22.21;64.41
13011;BME280;6786;57.632;11.962;2022-07-04T06:11:10;100676.00;;;22.21;64.39
13011;BME280;6786;57.632;11.962;2022-07-04T06:13:38;100674.28;;;22.20;64.69
13011;BME280;6786;57.632;11.962;2022-07-04T06:16:06;100677.13;;;22.19;64.32
13011;BME280;6786;57.632;11.962;2022-07-04T06:18:34;100672.44;;;22.21;64.33
13011;BME280;6786;57.632;11.962;2022-07-04T06:21:02;100674.28;;;22.20;64.28
13011;BME280;6786;57.632;11.962;2022-07-04T06:23:31;100682.22;;;22.22;64.49
13011;BME280;6786;57.632;11.962;2022-07-04T06:26:00;100679.50;;;22.22;64.30
13011;BME280;6786;57.632;11.962;2022-07-04T06:28:29;100680.53;;;22.21;64.39
13011;BME280;6786;57.632;11.962;2022-07-04T06:31:14;100680.53;;;22.21;64.58
13011;BME280;6786;57.632;11.962;2022-07-04T06:33:42;100672.38;;;22.13;64.57
13011;BME280;6786;57.632;11.962;2022-07-04T06:36:28;100684.22;;;22.20;64.46
13011;BME280;6786;57.632;11.962;2022-07-04T06:38:57;100684.22;;;22.20;64.33
13011;BME280;6786;57.632;11.962;2022-07-04T06:41:25;100679.84;;;22.19;64.69
13011;BME280;6786;57.632;11.962;2022-07-04T06:43:55;100675.47;;;22.18;64.35
13011;BME280;6786;57.632;11.962;2022-07-04T06:46:23;100680.53;;;22.21;64.56
13011;BME280;6786;57.632;11.962;2022-07-04T06:48:51;100676.97;;;22.20;64.39
13011;BME280;6786;57.632;11.962;2022-07-04T06:51:19;100676.00;;;22.21;64.67
13011;BME280;6786;57.632;11.962;2022-07-04T06:53:48;100673.47;;;22.20;64.69
13011;BME280;6786;57.632;11.962;2022-07-04T06:56:18;100674.44;;;22.19;64.30
13011;BME280;6786;57.632;11.962;2022-07-04T06:58:46;100680.53;;;22.21;64.64
13011;BME280;6786;57.632;11.962;2022-07-04T07:01:15;100675.47;;;22.18;64.61
13011;BME280;6786;57.632;11.962;2022-07-04T07:03:44;100678.00;;;22.19;64.19
13011;BME280;6786;57.632;11.962;2022-07-04T07:06:12;100680.53;;;22.21;64.67
13011;BME280;6786;57.632;11.962;2022-07-04T07:08:40;100661.91;;;22.10;64.43
13011;BME280;6786;57.632;11.962;2022-07-04T07:11:08;100677.69;;;22.22;64.60
13011;BME280;6786;57.632;11.962;2022-07-04T07:13:48;100682.22;;;22.22;64.35
13011;BME280;6786;57.632;11.962;2022-07-04T07:16:31;100680.53;;;22.21;64.33
13011;BME280;6786;57.632;11.962;2022-07-04T07:18:59;100671.75;;;22.19;64.42
13011;BME280;6786;57.632;11.962;2022-07-04T07:21:28;100681.53;;;22.20;64.58
13011;BME280;6786;57.632;11.962;2022-07-04T07:23:56;100684.22;;;22.20;64.68
13011;BME280;6786;57.632;11.962;2022-07-04T07:26:24;100682.53;;;22.19;64.33
13011;BME280;6786;57.632;11.962;2022-07-04T07:28:52;100684.22;;;22.20;64.65
13011;BME280;6786;57.632;11.962;2022-07-04T07:31:20;100679.84;;;22.19;64.58
13011;BME280;6786;57.632;11.962;2022-07-04T07:33:50;100683.22;;;22.21;64.65
13011;BME280;6786;57.632;11.962;2022-07-04T07:36:18;100689.63;;;22.20;64.51
13011;BME280;6786;57.632;11.962;2022-07-04T07:38:46;100691.31;;;22.21;64.38
13011;BME280;6786;57.632;11.962;2022-07-04T07:41:14;100684.22;;;22.20;64.23
13011;BME280;6786;57.632;11.962;2022-07-04T07:43:42;100679.16;;;22.17;64.46
13011;BME280;6786;57.632;11.962;2022-07-04T07:46:10;100692.97;;;22.22;64.53
13011;BME280;6786;57.632;11.962;2022-07-04T07:48:38;100685.06;;;22.20;64.57
13011;BME280;6786;57.632;11.962;2022-07-04T07:51:09;100680.53;;;22.21;64.39
13011;BME280;6786;57.632;11.962;2022-07-04T07:53:37;100684.91;;;22.22;64.42
13011;BME280;6786;57.632;11.962;2022-07-04T07:56:26;100685.91;;;22.21;64.18
13011;BME280;6786;57.632;11.962;2022-07-04T07:58:54;100690.38;;;22.30;64.22
13011;BME280;6786;57.632;11.962;2022-07-04T08:01:22;100687.28;;;22.25;63.98
13011;BME280;6786;57.632;11.962;2022-07-04T08:03:50;100697.44;;;22.31;63.79
13011;BME280;6786;57.632;11.962;2022-07-04T08:06:40;100681.91;;;22.25;63.89
13011;BME280;6786;57.632;11.962;2022-07-04T08:09:29;100702.81;;;22.31;64.14
13011;BME280;6786;57.632;11.962;2022-07-04T08:11:57;100697.44;;;22.31;63.77
13011;BME280;6786;57.632;11.962;2022-07-04T08:14:25;100697.44;;;22.31;63.83
13011;BME280;6786;57.632;11.962;2022-07-04T08:16:54;100702.81;;;22.31;64.02
13011;BME280;6786;57.632;11.962;2022-07-04T08:19:24;100707.22;;;22.32;63.76
13011;BME280;6786;57.632;11.962;2022-07-04T08:21:54;100699.13;;;22.32;64.06
13011;BME280;6786;57.632;11.962;2022-07-04T08:24:43;100699.13;;;22.32;63.91
13011;BME280;6786;57.632;11.962;2022-07-04T08:27:12;100700.13;;;22.31;63.82
13011;BME280;6786;57.632;11.962;2022-07-04T08:29:41;100698.13;;;22.33;63.97
13011;BME280;6786;57.632;11.962;2022-07-04T08:32:10;100698.44;;;22.30;63.95
13011;BME280;6786;57.632;11.962;2022-07-04T08:34:38;100682.53;;;22.19;63.82
13011;BME280;6786;57.632;11.962;2022-07-04T08:37:07;100703.44;;;22.25;64.35
13011;BME280;6786;57.632;11.962;2022-07-04T08:39:36;100701.75;;;22.24;64.12
13011;BME280;6786;57.632;11.962;2022-07-04T08:42:06;100707.13;;;22.24;64.39
13011;BME280;6786;57.632;11.962;2022-07-04T08:44:39;100706.44;;;22.22;64.10
13011;BME280;6786;57.632;11.962;2022-07-04T08:47:09;100672.69;;;22.10;64.18
13011;BME280;6786;57.632;11.962;2022-07-04T08:49:44;100698.38;;;22.22;64.47
13011;BME280;6786;57.632;11.962;2022-07-04T08:52:17;100705.47;;;22.23;64.29
13011;BME280;6786;57.632;11.962;2022-07-04T08:54:53;100701.75;;;22.24;64.42
13011;BME280;6786;57.632;11.962;2022-07-04T08:57:45;100703.75;;;22.22;64.34
13011;BME280;6786;57.632;11.962;2022-07-04T09:00:31;100696.69;;;22.21;64.44
13011;BME280;6786;57.632;11.962;2022-07-04T09:03:01;100697.00;;;22.18;64.15
13011;BME280;6786;57.632;11.962;2022-07-04T09:05:30;100698.69;;;22.19;64.32
13011;BME280;6786;57.632;11.962;2022-07-04T09:08:02;100699.53;;;22.19;64.28
13011;BME280;6786;57.632;11.962;2022-07-04T09:10:31;100698.69;;;22.19;64.07
13011;BME280;6786;57.632;11.962;2022-07-04T09:13:00;100700.69;;;22.17;64.43
13011;BME280;6786;57.632;11.962;2022-07-04T09:15:39;100707.44;;;22.21;64.45
13011;BME280;6786;57.632;11.962;2022-07-04T09:18:19;100692.06;;;22.13;64.09
13011;BME280;6786;57.632;11.962;2022-07-04T09:20:48;100698.69;;;22.19;64.11
13011;BME280;6786;57.632;11.962;2022-07-04T09:23:19;100711.16;;;22.20;64.35
13011;BME280;6786;57.632;11.962;2022-07-04T09:25:48;100704.38;;;22.16;64.14
13011;BME280;6786;57.632;11.962;2022-07-04T09:28:28;100716.53;;;22.20;63.90
13011;BME280;6786;57.632;11.962;2022-07-04T09:30:57;100705.78;;;22.20;64.42
13011;BME280;6786;57.632;11.962;2022-07-04T09:33:43;100712.84;;;22.21;64.29
13011;BME280;6786;57.632;11.962;2022-07-04T09:36:12;100716.22;;;22.23;64.40
13011;BME280;6786;57.632;11.962;2022-07-04T09:38:42;100707.44;;;22.21;64.05
13011;BME280;6786;57.632;11.962;2022-07-04T09:41:10;100709.13;;;22.22;64.29
13011;BME280;6786;57.632;11.962;2022-07-04T09:44:00;100711.97;;;22.20;64.34
13011;BME280;6786;57.632;11.962;2022-07-04T09:46:29;100705.78;;;22.20;64.04
13011;BME280;6786;57.632;11.962;2022-07-04T09:48:57;100706.59;;;22.20;64.04
13011;BME280;6786;57.632;11.962;2022-07-04T09:51:40;100711.16;;;22.20;64.36
13011;BME280;6786;57.632;11.962;2022-07-04T09:54:18;100706.59;;;22.20;64.05
13011;BME280;6786;57.632;11.962;2022-07-04T09:56:50;100714.81;;;22.19;64.38
13011;BME280;6786;57.632;11.962;2022-07-04T09:59:19;100711.97;;;22.20;64.27
13011;BME280;6786;57.632;11.962;2022-07-04T10:01:47;100704.06;;;22.19;64.33
13011;BME280;6786;57.632;11.962;2022-07-04T10:04:15;100707.75;;;22.18;64.43
13011;BME280;6786;57.632;11.962;2022-07-04T10:06:44;100704.06;;;22.19;64.39
13011;BME280;6786;57.632;11.962;2022-07-04T10:09:14;100700.38;;;22.20;63.94
13011;BME280;6786;57.632;11.962;2022-07-04T10:11:46;100709.13;;;22.22;64.02
13011;BME280;6786;57.632;11.962;2022-07-04T10:14:14;100698.69;;;22.19;64.23
13011;BME280;6786;57.632;11.962;2022-07-04T10:16:43;100707.13;;;22.24;64.09
13011;BME280;6786;57.632;11.962;2022-07-04T10:19:11;100701.75;;;22.24;64.04
13011;BME280;6786;57.632;11.962;2022-07-04T10:21:40;100673.94;;;21.98;63.99
13011;BME280;6786;57.632;11.962;2022-07-04T10:24:08;100707.44;;;22.21;64.10
13011;BME280;6786;57.632;11.962;2022-07-04T10:26:36;100695.00;;;22.20;64.41
13011;BME280;6786;57.632;11.962;2022-07-04T10:29:06;100703.09;;;22.20;64.26
13011;BME280;6786;57.632;11.962;2022-07-04T10:31:34;100698.69;;;22.19;64.53
13011;BME280;6786;57.632;11.962;2022-07-04T10:34:03;100708.50;;;22.28;64.01
13011;BME280;6786;57.632;11.962;2022-07-04T10:36:31;100699.44;;;22.29;63.76
13011;BME280;6786;57.632;11.962;2022-07-04T10:39:00;100699.44;;;22.29;63.86
13011;BME280;6786;57.632;11.962;2022-07-04T10:41:29;100711.91;;;22.30;63.75
13011;BME280;6786;57.632;11.962;2022-07-04T10:44:00;100697.44;;;22.31;63.69
13011;BME280;6786;57.632;11.962;2022-07-04T10:46:34;100702.81;;;22.31;64.02
13011;BME280;6786;57.632;11.962;2022-07-04T10:49:06;100698.28;;;22.31;63.83
13011;BME280;6786;57.632;11.962;2022-07-04T10:51:37;100711.91;;;22.30;63.71
13011;BME280;6786;57.632;11.962;2022-07-04T10:54:08;100711.91;;;22.30;63.74
13011;BME280;6786;57.632;11.962;2022-07-04T10:56:42;100710.22;;;22.29;63.83
13011;BME280;6786;57.632;11.962;2022-07-04T10:59:12;100696.38;;;22.24;63.97
13011;BME280;6786;57.632;11.962;2022-07-04T11:04:56;100714.91;;;22.27;63.82
13011;BME280;6786;57.632;11.962;2022-07-04T11:07:55;100704.84;;;22.29;64.18
13011;BME280;6786;57.632;11.962;2022-07-04T11:10:23;100695.50;;;22.23;63.85
13011;BME280;6786;57.632;11.962;2022-07-04T11:13:05;100706.81;;;22.27;63.88
13011;BME280;6786;57.632;11.962;2022-07-04T11:16:05;100696.06;;;22.27;63.80
13011;BME280;6786;57.632;11.962;2022-07-04T11:18:41;100696.06;;;22.27;64.17
13011;BME280;6786;57.632;11.962;2022-07-04T11:21:23;100682.59;;;22.27;63.76
13011;BME280;6786;57.632;11.962;2022-07-04T11:23:53;100690.69;;;22.27;63.71
13011;BME280;6786;57.632;11.962;2022-07-04T11:26:22;100691.38;;;22.29;63.81
13011;BME280;6786;57.632;11.962;2022-07-04T11:28:50;100713.91;;;22.28;64.19
13011;BME280;6786;57.632;11.962;2022-07-04T11:31:19;100713.75;;;22.29;64.04
13011;BME280;6786;57.632;11.962;2022-07-04T11:33:47;100715.75;;;22.27;64.19
13011;BME280;6786;57.632;11.962;2022-07-04T11:36:16;100718.31;;;22.29;63.83
13011;BME280;6786;57.632;11.962;2022-07-04T11:38:51;100716.75;;;22.26;63.91
13011;BME280;6786;57.632;11.962;2022-07-04T11:41:22;100713.91;;;22.28;63.93
13011;BME280;6786;57.632;11.962;2022-07-04T11:44:11;100721.00;;;22.29;63.84
13011;BME280;6786;57.632;11.962;2022-07-04T11:47:05;100719.28;;;22.28;63.78
13011;BME280;6786;57.632;11.962;2022-07-04T11:49:34;100711.34;;;22.26;63.78
13011;BME280;6786;57.632;11.962;2022-07-04T11:52:02;100706.81;;;22.27;63.89
13011;BME280;6786;57.632;11.962;2022-07-04T11:54:33;100717.28;;;22.30;64.14
13011;BME280;6786;57.632;11.962;2022-07-04T11:57:21;100703.44;;;22.25;64.06
13011;BME280;6786;57.632;11.962;2022-07-04T11:59:55;100692.97;;;22.22;63.94
13011;BME280;6786;57.632;11.962;2022-07-04T12:02:24;100697.75;;;22.28;64.19
13011;BME280;6786;57.632;11.962;2022-07-04T12:04:53;100703.13;;;22.28;64.14
13011;BME280;6786;57.632;11.962;2022-07-04T12:07:24;100696.06;;;22.27;63.79
13011;BME280;6786;57.632;11.962;2022-07-04T12:09:54;100694.06;;;22.29;64.08
13011;BME280;6786;57.632;11.962;2022-07-04T12:12:23;100697.75;;;22.28;64.21
13011;BME280;6786;57.632;11.962;2022-07-04T12:15:00;100695.19;;;22.26;64.16
13011;BME280;6786;57.632;11.962;2022-07-04T12:17:30;100692.34;;;22.28;63.86
13011;BME280;6786;57.632;11.962;2022-07-04T12:20:00;100699.44;;;22.29;63.79
13011;BME280;6786;57.632;11.962;2022-07-04T12:22:34;100665.31;;;22.12;64.08
13011;BME280;6786;57.632;11.962;2022-07-04T12:25:07;100702.81;;;22.31;63.94
13011;BME280;6786;57.632;11.962;2022-07-04T12:27:37;100698.44;;;22.30;64.17
13011;BME280;6786;57.632;11.962;2022-07-04T12:30:05;100694.06;;;22.29;64.14
13011;BME280;6786;57.632;11.962;2022-07-04T12:32:44;100690.38;;;22.30;63.80
13011;BME280;6786;57.632;11.962;2022-07-04T12:35:32;100685.84;;;22.30;63.85
13011;BME280;6786;57.632;11.962;2022-07-04T12:38:02;100683.28;;;22.29;63.75
13011;BME280;6786;57.632;11.962;2022-07-04T12:40:32;100690.38;;;22.30;63.72
13011;BME280;6786;57.632;11.962;2022-07-04T12:43:00;100680.59;;;22.29;63.80
13011;BME280;6786;57.632;11.962;2022-07-04T12:45:42;100684.97;;;22.30;63.79
13011;BME280;6786;57.632;11.962;2022-07-04T12:48:19;100679.91;;;22.27;63.97
13011;BME280;6786;57.632;11.962;2022-07-04T12:50:48;100684.44;;;22.26;64.16
13011;BME280;6786;57.632;11.962;2022-07-04T12:53:16;100681.59;;;22.28;64.19
13011;BME280;6786;57.632;11.962;2022-07-04T12:55:47;100662.38;;;22.23;64.03
13011;BME280;6786;57.632;11.962;2022-07-04T12:58:15;100677.38;;;22.25;64.24
13011;BME280;6786;57.632;11.962;2022-07-04T13:00:43;100680.59;;;22.29;63.79
13011;BME280;6786;57.632;11.962;2022-07-04T13:03:11;100675.22;;;22.29;64.08
13011;BME280;6786;57.632;11.962;2022-07-04T13:05:40;100677.91;;;22.29;63.87
13011;BME280;6786;57.632;11.962;2022-07-04T13:08:08;100672.53;;;22.29;63.88
13011;BME280;6786;57.632;11.962;2022-07-04T13:10:36;100663.75;;;22.27;64.00